New Orleans, LA

2:52 AM CST on January 30, 2015 (GMT -0600)
APRSWXNET New Orleans LA US | Change Station
CLOSE
Current Station
Personal Weather Station
Location: New Orleans, LA
Elevation: 3 ft
Nearby Weather Stations

Elev 3 ft 29.97 °N, 90.09 °W | Updated 34 minutes ago

Mostly Cloudy
Mostly Cloudy
60 °F
Feels Like 60 °F
N
12
Wind Variable Wind from North
Gusts 19.0 mph

Today
High -- | Low -- °F
--% Chance of Precip.
Yesterday
High -- | Low -- °F
Precip. -- in
6:51 AM 5:35 PM
Waxing Gibbous, 81% visible
Pressure 30.25 in
Visibility 10.0 miles
Clouds Mostly Cloudy 11000 ft
Dew Point 52 °F
Humidity 74%
Rainfall 0.00 in
Snow Depth Not available.
UV 0 out of 12
Pollen 8.20 out of 12
Air Quality Not available.
Flu Activity Not available.
METAR KNEW 300753Z AUTO 01013KT 10SM BKN110 15/11 A3027 RMK AO2 SLP242 T01500111 TSNO

More Conditions Fewer Conditions

Pressure 30.25 in
Visibility 10.0 miles
Clouds Mostly Cloudy 11000 ft
Dew Point 52 °F
Humidity 74%
Rainfall 0.00 in
Snow Depth Not available.
UV 0 out of 12
Pollen 8.20 out of 12
Air Quality Not available.
Flu Activity Not available.
METAR KNEW 300753Z AUTO 01013KT 10SM BKN110 15/11 A3027 RMK AO2 SLP242 T01500111 TSNO

More Conditions Fewer Conditions

10-Day Weather Forecast

Almanac

Astronomy

Jan. 30, 2015 Rise Set
Actual Time
Civil Twilight
Nautical Twilight
Astronomical Twilight
Moon
Length of Visible Light
Length of Day
Tomorrow will be .
, % of the Moon is Illuminated

Today's Extremes

State Highs State Lows

Community

WunderPhotos

Upload Photos

1,791,730 photos uploaded!

WunderBlogs® & News

Nearby

Air Quality

  Air Quality AQ Index Pollutant
Not available.

Snow Depth

Station Depth Elevation

Earthquake Activity

City Distance Mag. Time & Date
Minimum magnitude displayed is 2.5.

Coastal Water Temperatures

Place Temperature

Nearby Weather Stations